sensor_id;sensor_type;location;lat;lon;timestamp;temperature;humidity
20171;DHT22;10245;51.344;6.620;2023-05-10T00:01:58;13.30;95.30
20171;DHT22;10245;51.344;6.620;2023-05-10T00:04:22;13.30;95.30
20171;DHT22;10245;51.344;6.620;2023-05-10T00:06:49;13.30;95.30
20171;DHT22;10245;51.344;6.620;2023-05-10T00:09:12;13.30;95.30
20171;DHT22;10245;51.344;6.620;2023-05-10T00:11:35;13.20;95.20
20171;DHT22;10245;51.344;6.620;2023-05-10T00:14:00;13.20;95.20
20171;DHT22;10245;51.344;6.620;2023-05-10T00:16:23;13.10;95.10
20171;DHT22;10245;51.344;6.620;2023-05-10T00:18:46;13.10;95.20
20171;DHT22;10245;51.344;6.620;2023-05-10T00:21:10;13.10;95.20
20171;DHT22;10245;51.344;6.620;2023-05-10T00:23:33;13.10;95.30
20171;DHT22;10245;51.344;6.620;2023-05-10T00:25:56;13.10;95.10
20171;DHT22;10245;51.344;6.620;2023-05-10T00:28:20;13.00;95.10
20171;DHT22;10245;51.344;6.620;2023-05-10T00:30:44;13.00;95.00
20171;DHT22;10245;51.344;6.620;2023-05-10T00:33:08;13.00;95.10
20171;DHT22;10245;51.344;6.620;2023-05-10T00:35:31;13.00;95.10
20171;DHT22;10245;51.344;6.620;2023-05-10T00:37:54;13.10;95.10
20171;DHT22;10245;51.344;6.620;2023-05-10T00:40:18;13.00;95.00
20171;DHT22;10245;51.344;6.620;2023-05-10T00:42:45;13.00;95.10
20171;DHT22;10245;51.344;6.620;2023-05-10T00:45:09;13.00;95.10
20171;DHT22;10245;51.344;6.620;2023-05-10T00:47:34;13.00;95.10
20171;DHT22;10245;51.344;6.620;2023-05-10T00:49:58;13.00;95.10
20171;DHT22;10245;51.344;6.620;2023-05-10T00:52:23;13.00;95.10
20171;DHT22;10245;51.344;6.620;2023-05-10T00:54:47;13.00;95.20
20171;DHT22;10245;51.344;6.620;2023-05-10T00:57:11;13.00;95.20
20171;DHT22;10245;51.344;6.620;2023-05-10T00:59:34;13.00;95.20
20171;DHT22;10245;51.344;6.620;2023-05-10T01:01:58;13.00;95.20
20171;DHT22;10245;51.344;6.620;2023-05-10T01:04:25;12.90;95.20
20171;DHT22;10245;51.344;6.620;2023-05-10T01:06:48;13.00;95.30
20171;DHT22;10245;51.344;6.620;2023-05-10T01:09:11;13.00;95.30
20171;DHT22;10245;51.344;6.620;2023-05-10T01:11:35;13.00;95.30
20171;DHT22;10245;51.344;6.620;2023-05-10T01:13:58;13.00;95.40
20171;DHT22;10245;51.344;6.620;2023-05-10T01:16:22;13.00;95.30
20171;DHT22;10245;51.344;6.620;2023-05-10T01:18:46;13.00;95.40
20171;DHT22;10245;51.344;6.620;2023-05-10T01:21:17;13.00;95.30
20171;DHT22;10245;51.344;6.620;2023-05-10T01:24:20;12.90;95.30
20171;DHT22;10245;51.344;6.620;2023-05-10T01:27:44;12.90;95.30
20171;DHT22;10245;51.344;6.620;2023-05-10T01:30:35;12.90;95.30
20171;DHT22;10245;51.344;6.620;2023-05-10T01:33:16;12.80;95.20
20171;DHT22;10245;51.344;6.620;2023-05-10T01:35:45;12.80;95.10
20171;DHT22;10245;51.344;6.620;2023-05-10T01:38:17;12.80;95.20
20171;DHT22;10245;51.344;6.620;2023-05-10T01:40:48;12.70;95.20
20171;DHT22;10245;51.344;6.620;2023-05-10T01:43:22;12.70;95.20
20171;DHT22;10245;51.344;6.620;2023-05-10T01:45:58;12.70;95.30
20171;DHT22;10245;51.344;6.620;2023-05-10T01:48:28;12.80;95.40
20171;DHT22;10245;51.344;6.620;2023-05-10T01:50:52;12.90;95.50
20171;DHT22;10245;51.344;6.620;2023-05-10T01:53:18;12.90;95.50
20171;DHT22;10245;51.344;6.620;2023-05-10T01:55:47;12.90;95.50
20171;DHT22;10245;51.344;6.620;2023-05-10T01:58:14;12.90;95.30
20171;DHT22;10245;51.344;6.620;2023-05-10T02:00:42;12.90;95.40
20171;DHT22;10245;51.344;6.620;2023-05-10T02:03:08;13.00;95.40
20171;DHT22;10245;51.344;6.620;2023-05-10T02:05:36;12.80;95.20
20171;DHT22;10245;51.344;6.620;2023-05-10T02:08:00;12.90;95.30
20171;DHT22;10245;51.344;6.620;2023-05-10T02:10:25;12.90;95.30
20171;DHT22;10245;51.344;6.620;2023-05-10T02:12:50;12.90;95.40
20171;DHT22;10245;51.344;6.620;2023-05-10T02:15:17;12.90;95.50
20171;DHT22;10245;51.344;6.620;2023-05-10T02:17:43;12.90;95.50
20171;DHT22;10245;51.344;6.620;2023-05-10T02:20:08;12.90;95.50
20171;DHT22;10245;51.344;6.620;2023-05-10T02:22:35;12.90;95.50
20171;DHT22;10245;51.344;6.620;2023-05-10T02:25:00;12.90;95.50
20171;DHT22;10245;51.344;6.620;2023-05-10T02:27:24;12.90;95.60
20171;DHT22;10245;51.344;6.620;2023-05-10T02:29:49;12.90;95.60
20171;DHT22;10245;51.344;6.620;2023-05-10T02:32:14;12.80;95.60
20171;DHT22;10245;51.344;6.620;2023-05-10T02:34:39;12.90;95.60
20171;DHT22;10245;51.344;6.620;2023-05-10T02:37:03;12.90;95.60
20171;DHT22;10245;51.344;6.620;2023-05-10T02:39:29;12.80;95.60
20171;DHT22;10245;51.344;6.620;2023-05-10T02:41:54;12.90;95.60
20171;DHT22;10245;51.344;6.620;2023-05-10T02:44:20;13.00;95.70
20171;DHT22;10245;51.344;6.620;2023-05-10T02:46:45;13.00;95.70
20171;DHT22;10245;51.344;6.620;2023-05-10T02:49:10;12.90;95.60
20171;DHT22;10245;51.344;6.620;2023-05-10T02:51:37;13.00;95.70
20171;DHT22;10245;51.344;6.620;2023-05-10T02:54:18;13.00;95.50
20171;DHT22;10245;51.344;6.620;2023-05-10T02:56:48;12.90;95.60
20171;DHT22;10245;51.344;6.620;2023-05-10T02:59:14;12.90;95.60
20171;DHT22;10245;51.344;6.620;2023-05-10T03:01:37;12.90;95.60
20171;DHT22;10245;51.344;6.620;2023-05-10T03:04:01;12.90;95.60
20171;DHT22;10245;51.344;6.620;2023-05-10T03:06:24;12.90;95.60
20171;DHT22;10245;51.344;6.620;2023-05-10T03:08:48;12.90;95.60
20171;DHT22;10245;51.344;6.620;2023-05-10T03:11:28;13.00;95.60
20171;DHT22;10245;51.344;6.620;2023-05-10T03:14:08;13.00;95.60
20171;DHT22;10245;51.344;6.620;2023-05-10T03:16:38;13.00;95.60
20171;DHT22;10245;51.344;6.620;2023-05-10T03:19:12;13.00;95.60
20171;DHT22;10245;51.344;6.620;2023-05-10T03:21:41;13.00;95.70
20171;DHT22;10245;51.344;6.620;2023-05-10T03:24:09;13.00;95.60
20171;DHT22;10245;51.344;6.620;2023-05-10T03:26:38;13.00;95.60
20171;DHT22;10245;51.344;6.620;2023-05-10T03:29:09;13.00;95.60
20171;DHT22;10245;51.344;6.620;2023-05-10T03:31:34;13.00;95.60
20171;DHT22;10245;51.344;6.620;2023-05-10T03:33:59;13.00;95.60
20171;DHT22;10245;51.344;6.620;2023-05-10T03:36:23;13.00;95.60
20171;DHT22;10245;51.344;6.620;2023-05-10T03:38:46;13.10;95.70
20171;DHT22;10245;51.344;6.620;2023-05-10T03:41:10;13.00;95.60
20171;DHT22;10245;51.344;6.620;2023-05-10T03:43:33;13.00;95.70
20171;DHT22;10245;51.344;6.620;2023-05-10T03:45:59;13.00;95.70
20171;DHT22;10245;51.344;6.620;2023-05-10T03:48:24;13.00;95.70
20171;DHT22;10245;51.344;6.620;2023-05-10T03:50:48;13.00;95.70
20171;DHT22;10245;51.344;6.620;2023-05-10T03:53:11;13.00;95.70
20171;DHT22;10245;51.344;6.620;2023-05-10T03:55:35;13.00;95.70
20171;DHT22;10245;51.344;6.620;2023-05-10T03:57:58;13.00;95.60
20171;DHT22;10245;51.344;6.620;2023-05-10T04:00:21;13.00;95.60
20171;DHT22;10245;51.344;6.620;2023-05-10T04:02:49;13.00;95.70
20171;DHT22;10245;51.344;6.620;2023-05-10T04:05:14;13.00;95.70
20171;DHT22;10245;51.344;6.620;2023-05-10T04:07:37;13.00;95.70
20171;DHT22;10245;51.344;6.620;2023-05-10T04:10:01;13.00;95.70
20171;DHT22;10245;51.344;6.620;2023-05-10T04:12:24;13.10;95.70
20171;DHT22;10245;51.344;6.620;2023-05-10T04:14:48;13.10;95.70
20171;DHT22;10245;51.344;6.620;2023-05-10T04:17:11;13.00;95.70
20171;DHT22;10245;51.344;6.620;2023-05-10T04:19:36;13.10;95.70
20171;DHT22;10245;51.344;6.620;2023-05-10T04:22:00;13.00;95.60
20171;DHT22;10245;51.344;6.620;2023-05-10T04:24:23;13.00;95.70
20171;DHT22;10245;51.344;6.620;2023-05-10T04:26:47;13.00;95.70
20171;DHT22;10245;51.344;6.620;2023-05-10T04:29:10;13.00;95.70
20171;DHT22;10245;51.344;6.620;2023-05-10T04:31:33;13.00;95.60
20171;DHT22;10245;51.344;6.620;2023-05-10T04:33:58;13.10;95.70
20171;DHT22;10245;51.344;6.620;2023-05-10T04:36:22;13.10;95.70
20171;DHT22;10245;51.344;6.620;2023-05-10T04:38:46;13.10;95.70
20171;DHT22;10245;51.344;6.620;2023-05-10T04:41:10;13.10;95.80
20171;DHT22;10245;51.344;6.620;2023-05-10T04:43:34;13.00;95.60
20171;DHT22;10245;51.344;6.620;2023-05-10T04:45:58;13.10;95.70
20171;DHT22;10245;51.344;6.620;2023-05-10T04:48:21;13.10;95.60
20171;DHT22;10245;51.344;6.620;2023-05-10T04:50:44;13.10;95.70
20171;DHT22;10245;51.344;6.620;2023-05-10T04:53:09;13.00;95.50
20171;DHT22;10245;51.344;6.620;2023-05-10T04:55:36;13.10;95.60
20171;DHT22;10245;51.344;6.620;2023-05-10T04:57:59;13.10;95.60
20171;DHT22;10245;51.344;6.620;2023-05-10T05:00:22;13.10;95.60
20171;DHT22;10245;51.344;6.620;2023-05-10T05:02:46;13.10;95.50
20171;DHT22;10245;51.344;6.620;2023-05-10T05:05:09;13.20;95.50
20171;DHT22;10245;51.344;6.620;2023-05-10T05:07:33;13.20;95.50
20171;DHT22;10245;51.344;6.620;2023-05-10T05:09:57;13.20;95.50
20171;DHT22;10245;51.344;6.620;2023-05-10T05:12:21;13.20;95.40
20171;DHT22;10245;51.344;6.620;2023-05-10T05:14:44;13.20;95.50
20171;DHT22;10245;51.344;6.620;2023-05-10T05:17:07;13.30;95.40
20171;DHT22;10245;51.344;6.620;2023-05-10T05:19:32;13.20;95.40
20171;DHT22;10245;51.344;6.620;2023-05-10T05:21:55;13.30;95.30
20171;DHT22;10245;51.344;6.620;2023-05-10T05:24:18;13.40;95.50
20171;DHT22;10245;51.344;6.620;2023-05-10T05:26:43;13.40;95.40
20171;DHT22;10245;51.344;6.620;2023-05-10T05:29:06;13.20;95.20
20171;DHT22;10245;51.344;6.620;2023-05-10T05:31:30;13.20;95.30
20171;DHT22;10245;51.344;6.620;2023-05-10T05:33:53;13.30;95.30
20171;DHT22;10245;51.344;6.620;2023-05-10T05:36:16;13.20;95.30
20171;DHT22;10245;51.344;6.620;2023-05-10T05:38:40;13.10;95.10
20171;DHT22;10245;51.344;6.620;2023-05-10T05:41:04;13.20;95.10
20171;DHT22;10245;51.344;6.620;2023-05-10T05:43:29;13.20;95.20
20171;DHT22;10245;51.344;6.620;2023-05-10T05:45:52;13.20;95.10
20171;DHT22;10245;51.344;6.620;2023-05-10T05:48:16;13.20;95.00
20171;DHT22;10245;51.344;6.620;2023-05-10T05:50:39;13.20;95.00
20171;DHT22;10245;51.344;6.620;2023-05-10T05:53:02;13.20;94.90
20171;DHT22;10245;51.344;6.620;2023-05-10T05:55:26;13.20;94.80
20171;DHT22;10245;51.344;6.620;2023-05-10T05:57:49;13.30;94.80
20171;DHT22;10245;51.344;6.620;2023-05-10T06:00:14;13.30;94.90
20171;DHT22;10245;51.344;6.620;2023-05-10T06:02:40;13.20;95.00
20171;DHT22;10245;51.344;6.620;2023-05-10T06:05:04;13.30;95.10
20171;DHT22;10245;51.344;6.620;2023-05-10T06:07:28;13.20;95.10
20171;DHT22;10245;51.344;6.620;2023-05-10T06:09:51;13.20;95.20
20171;DHT22;10245;51.344;6.620;2023-05-10T06:12:14;13.20;95.20
20171;DHT22;10245;51.344;6.620;2023-05-10T06:14:38;13.10;95.00
20171;DHT22;10245;51.344;6.620;2023-05-10T06:17:02;13.20;95.10
20171;DHT22;10245;51.344;6.620;2023-05-10T06:19:26;13.20;95.00
20171;DHT22;10245;51.344;6.620;2023-05-10T06:21:50;13.20;95.00
20171;DHT22;10245;51.344;6.620;2023-05-10T06:24:14;13.20;95.00
20171;DHT22;10245;51.344;6.620;2023-05-10T06:26:38;13.30;95.00
20171;DHT22;10245;51.344;6.620;2023-05-10T06:29:01;13.20;94.90
20171;DHT22;10245;51.344;6.620;2023-05-10T06:31:24;13.30;95.00
20171;DHT22;10245;51.344;6.620;2023-05-10T06:33:49;13.30;94.90
20171;DHT22;10245;51.344;6.620;2023-05-10T06:36:12;13.30;95.10
20171;DHT22;10245;51.344;6.620;2023-05-10T06:38:36;13.30;95.10
20171;DHT22;10245;51.344;6.620;2023-05-10T06:40:59;13.30;95.10
20171;DHT22;10245;51.344;6.620;2023-05-10T06:43:23;13.30;95.10
20171;DHT22;10245;51.344;6.620;2023-05-10T06:45:47;13.40;95.10
20171;DHT22;10245;51.344;6.620;2023-05-10T06:48:11;13.30;95.00
20171;DHT22;10245;51.344;6.620;2023-05-10T06:50:35;13.30;95.10
20171;DHT22;10245;51.344;6.620;2023-05-10T06:52:59;13.40;95.10
20171;DHT22;10245;51.344;6.620;2023-05-10T06:55:23;13.30;95.00
20171;DHT22;10245;51.344;6.620;2023-05-10T06:57:46;13.20;95.10
20171;DHT22;10245;51.344;6.620;2023-05-10T07:00:10;13.20;95.10
20171;DHT22;10245;51.344;6.620;2023-05-10T07:02:34;13.20;95.10
20171;DHT22;10245;51.344;6.620;2023-05-10T07:04:57;13.30;95.10
20171;DHT22;10245;51.344;6.620;2023-05-10T07:07:25;13.30;95.10
20171;DHT22;10245;51.344;6.620;2023-05-10T07:09:48;13.30;95.20
20171;DHT22;10245;51.344;6.620;2023-05-10T07:12:12;13.40;95.00
20171;DHT22;10245;51.344;6.620;2023-05-10T07:14:36;13.50;95.20
20171;DHT22;10245;51.344;6.620;2023-05-10T07:17:00;13.50;95.00
20171;DHT22;10245;51.344;6.620;2023-05-10T07:19:23;13.50;95.10
20171;DHT22;10245;51.344;6.620;2023-05-10T07:21:47;13.60;95.10
20171;DHT22;10245;51.344;6.620;2023-05-10T07:24:11;13.70;95.10
20171;DHT22;10245;51.344;6.620;2023-05-10T07:26:34;13.50;94.40
20171;DHT22;10245;51.344;6.620;2023-05-10T07:28:58;13.50;94.50
20171;DHT22;10245;51.344;6.620;2023-05-10T07:31:21;13.60;94.20
20171;DHT22;10245;51.344;6.620;2023-05-10T07:33:44;13.60;94.30
20171;DHT22;10245;51.344;6.620;2023-05-10T07:36:08;13.80;94.30
20171;DHT22;10245;51.344;6.620;2023-05-10T07:38:31;14.00;94.40
20171;DHT22;10245;51.344;6.620;2023-05-10T07:40:56;13.90;93.80
20171;DHT22;10245;51.344;6.620;2023-05-10T07:43:19;14.00;94.10
20171;DHT22;10245;51.344;6.620;2023-05-10T07:45:43;13.90;93.10
20171;DHT22;10245;51.344;6.620;2023-05-10T07:48:06;13.80;93.10
20171;DHT22;10245;51.344;6.620;2023-05-10T07:50:29;14.00;93.20
20171;DHT22;10245;51.344;6.620;2023-05-10T07:52:53;13.90;92.50
20171;DHT22;10245;51.344;6.620;2023-05-10T07:55:18;14.10;92.90
20171;DHT22;10245;51.344;6.620;2023-05-10T07:57:44;14.30;93.70
20171;DHT22;10245;51.344;6.620;2023-05-10T08:00:08;14.00;91.50
20171;DHT22;10245;51.344;6.620;2023-05-10T08:02:35;14.10;92.10
20171;DHT22;10245;51.344;6.620;2023-05-10T08:04:58;14.10;92.70
20171;DHT22;10245;51.344;6.620;2023-05-10T08:07:22;14.10;92.70
20171;DHT22;10245;51.344;6.620;2023-05-10T08:09:46;14.10;92.40
20171;DHT22;10245;51.344;6.620;2023-05-10T08:12:09;14.00;92.40
20171;DHT22;10245;51.344;6.620;2023-05-10T08:14:34;13.90;92.10
20171;DHT22;10245;51.344;6.620;2023-05-10T08:16:58;14.00;92.10
20171;DHT22;10245;51.344;6.620;2023-05-10T08:19:21;13.80;91.20
20171;DHT22;10245;51.344;6.620;2023-05-10T08:21:45;14.00;91.90
20171;DHT22;10245;51.344;6.620;2023-05-10T08:24:08;13.80;91.20
20171;DHT22;10245;51.344;6.620;2023-05-10T08:26:33;13.80;90.50
20171;DHT22;10245;51.344;6.620;2023-05-10T08:28:56;13.80;91.00
20171;DHT22;10245;51.344;6.620;2023-05-10T08:31:21;13.80;90.60
20171;DHT22;10245;51.344;6.620;2023-05-10T08:33:44;13.70;90.90
20171;DHT22;10245;51.344;6.620;2023-05-10T08:36:08;13.70;91.30
20171;DHT22;10245;51.344;6.620;2023-05-10T08:38:31;13.90;91.10
20171;DHT22;10245;51.344;6.620;2023-05-10T08:40:55;13.80;90.50
20171;DHT22;10245;51.344;6.620;2023-05-10T08:43:20;13.90;91.10
20171;DHT22;10245;51.344;6.620;2023-05-10T08:45:44;14.00;90.20
20171;DHT22;10245;51.344;6.620;2023-05-10T08:48:10;14.00;90.00
20171;DHT22;10245;51.344;6.620;2023-05-10T08:50:35;14.20;91.30
20171;DHT22;10245;51.344;6.620;2023-05-10T08:53:00;14.10;91.40
20171;DHT22;10245;51.344;6.620;2023-05-10T08:55:27;14.10;90.10
20171;DHT22;10245;51.344;6.620;2023-05-10T08:57:51;14.10;89.80
20171;DHT22;10245;51.344;6.620;2023-05-10T09:00:15;14.00;89.90
20171;DHT22;10245;51.344;6.620;2023-05-10T09:02:38;14.20;90.90
20171;DHT22;10245;51.344;6.620;2023-05-10T09:05:04;14.20;91.10
20171;DHT22;10245;51.344;6.620;2023-05-10T09:07:28;14.30;90.00
20171;DHT22;10245;51.344;6.620;2023-05-10T09:09:52;14.20;88.90
20171;DHT22;10245;51.344;6.620;2023-05-10T09:12:16;14.20;89.40
20171;DHT22;10245;51.344;6.620;2023-05-10T09:14:39;14.00;89.40
20171;DHT22;10245;51.344;6.620;2023-05-10T09:17:03;14.00;89.50
20171;DHT22;10245;51.344;6.620;2023-05-10T09:19:28;14.10;90.60
20171;DHT22;10245;51.344;6.620;2023-05-10T09:21:52;14.00;88.40
20171;DHT22;10245;51.344;6.620;2023-05-10T09:24:17;14.00;87.80
20171;DHT22;10245;51.344;6.620;2023-05-10T09:26:46;14.10;87.60
20171;DHT22;10245;51.344;6.620;2023-05-10T09:29:10;14.20;88.50
20171;DHT22;10245;51.344;6.620;2023-05-10T09:31:47;14.40;89.20
20171;DHT22;10245;51.344;6.620;2023-05-10T09:34:16;14.50;89.70
20171;DHT22;10245;51.344;6.620;2023-05-10T09:36:55;14.40;87.50
20171;DHT22;10245;51.344;6.620;2023-05-10T09:39:19;14.40;87.60
20171;DHT22;10245;51.344;6.620;2023-05-10T09:41:43;14.40;89.00
20171;DHT22;10245;51.344;6.620;2023-05-10T09:44:07;14.20;87.80
20171;DHT22;10245;51.344;6.620;2023-05-10T09:46:35;14.20;88.60
20171;DHT22;10245;51.344;6.620;2023-05-10T09:48:58;14.00;88.50
20171;DHT22;10245;51.344;6.620;2023-05-10T09:51:22;14.00;88.90
20171;DHT22;10245;51.344;6.620;2023-05-10T09:53:48;14.00;88.40
20171;DHT22;10245;51.344;6.620;2023-05-10T09:56:12;14.00;89.70
20171;DHT22;10245;51.344;6.620;2023-05-10T09:58:36;14.00;89.10
20171;DHT22;10245;51.344;6.620;2023-05-10T10:01:01;14.10;88.60
20171;DHT22;10245;51.344;6.620;2023-05-10T10:03:24;14.00;88.70
20171;DHT22;10245;51.344;6.620;2023-05-10T10:05:51;14.10;88.80
20171;DHT22;10245;51.344;6.620;2023-05-10T10:08:15;14.00;87.60
20171;DHT22;10245;51.344;6.620;2023-05-10T10:10:41;14.20;88.90
20171;DHT22;10245;51.344;6.620;2023-05-10T10:13:07;14.10;87.60
20171;DHT22;10245;51.344;6.620;2023-05-10T10:15:32;14.20;87.90
20171;DHT22;10245;51.344;6.620;2023-05-10T10:17:56;14.40;88.00
20171;DHT22;10245;51.344;6.620;2023-05-10T10:20:22;14.40;87.50
20171;DHT22;10245;51.344;6.620;2023-05-10T10:22:47;14.40;87.40
20171;DHT22;10245;51.344;6.620;2023-05-10T10:25:12;14.50;87.30
20171;DHT22;10245;51.344;6.620;2023-05-10T10:27:47;14.50;86.30
20171;DHT22;10245;51.344;6.620;2023-05-10T10:30:20;14.40;87.00
20171;DHT22;10245;51.344;6.620;2023-05-10T10:33:01;14.40;86.70
20171;DHT22;10245;51.344;6.620;2023-05-10T10:35:49;14.30;87.20
20171;DHT22;10245;51.344;6.620;2023-05-10T10:38:13;14.50;87.80
20171;DHT22;10245;51.344;6.620;2023-05-10T10:40:37;14.20;87.10
20171;DHT22;10245;51.344;6.620;2023-05-10T10:43:22;14.20;87.60
20171;DHT22;10245;51.344;6.620;2023-05-10T10:46:10;14.20;87.20
20171;DHT22;10245;51.344;6.620;2023-05-10T10:48:35;14.40;88.20
20171;DHT22;10245;51.344;6.620;2023-05-10T10:50:59;14.40;88.90
20171;DHT22;10245;51.344;6.620;2023-05-10T10:53:26;14.50;88.50
20171;DHT22;10245;51.344;6.620;2023-05-10T10:56:04;14.60;86.90
20171;DHT22;10245;51.344;6.620;2023-05-10T10:58:31;14.80;88.20
20171;DHT22;10245;51.344;6.620;2023-05-10T11:01:10;14.60;87.90
20171;DHT22;10245;51.344;6.620;2023-05-10T11:03:34;14.70;86.30
20171;DHT22;10245;51.344;6.620;2023-05-10T11:05:58;14.80;86.20
20171;DHT22;10245;51.344;6.620;2023-05-10T11:08:27;14.90;87.00
20171;DHT22;10245;51.344;6.620;2023-05-10T11:11:09;15.00;87.40
20171;DHT22;10245;51.344;6.620;2023-05-10T11:13:37;15.00;86.50
20171;DHT22;10245;51.344;6.620;2023-05-10T11:16:15;14.80;86.30
20171;DHT22;10245;51.344;6.620;2023-05-10T11:18:40;14.80;87.20
20171;DHT22;10245;51.344;6.620;2023-05-10T11:21:04;14.60;85.40
20171;DHT22;10245;51.344;6.620;2023-05-10T11:23:31;14.60;85.90
20171;DHT22;10245;51.344;6.620;2023-05-10T11:25:55;14.50;85.10
20171;DHT22;10245;51.344;6.620;2023-05-10T11:28:19;14.50;86.50
20171;DHT22;10245;51.344;6.620;2023-05-10T11:30:44;14.70;86.70
20171;DHT22;10245;51.344;6.620;2023-05-10T11:33:08;14.70;85.60
20171;DHT22;10245;51.344;6.620;2023-05-10T11:35:38;14.80;85.90
20171;DHT22;10245;51.344;6.620;2023-05-10T11:38:06;14.90;86.70
20171;DHT22;10245;51.344;6.620;2023-05-10T11:40:29;14.80;84.80
20171;DHT22;10245;51.344;6.620;2023-05-10T11:42:55;14.90;86.40
20171;DHT22;10245;51.344;6.620;2023-05-10T11:45:19;14.80;86.10
20171;DHT22;10245;51.344;6.620;2023-05-10T11:47:44;14.70;84.80
20171;DHT22;10245;51.344;6.620;2023-05-10T11:50:11;14.80;86.00
20171;DHT22;10245;51.344;6.620;2023-05-10T11:52:36;14.90;86.30
20171;DHT22;10245;51.344;6.620;2023-05-10T11:54:59;14.80;85.50
20171;DHT22;10245;51.344;6.620;2023-05-10T11:57:26;15.00;86.00
20171;DHT22;10245;51.344;6.620;2023-05-10T11:59:53;15.00;85.10
20171;DHT22;10245;51.344;6.620;2023-05-10T12:02:17;15.00;84.50
20171;DHT22;10245;51.344;6.620;2023-05-10T12:04:42;15.10;85.90
20171;DHT22;10245;51.344;6.620;2023-05-10T12:07:05;15.20;84.50
20171;DHT22;10245;51.344;6.620;2023-05-10T12:09:29;15.10;84.20
20171;DHT22;10245;51.344;6.620;2023-05-10T12:12:05;15.00;84.90
20171;DHT22;10245;51.344;6.620;2023-05-10T12:14:28;15.20;84.80
20171;DHT22;10245;51.344;6.620;2023-05-10T12:16:57;15.40;84.80
20171;DHT22;10245;51.344;6.620;2023-05-10T12:19:20;15.30;82.80
20171;DHT22;10245;51.344;6.620;2023-05-10T12:21:45;15.60;82.70
20171;DHT22;10245;51.344;6.620;2023-05-10T12:24:08;15.80;82.90
20171;DHT22;10245;51.344;6.620;2023-05-10T12:26:32;15.90;81.30
20171;DHT22;10245;51.344;6.620;2023-05-10T12:29:12;16.10;79.80
20171;DHT22;10245;51.344;6.620;2023-05-10T12:31:49;17.00;82.60
20171;DHT22;10245;51.344;6.620;2023-05-10T12:34:23;17.30;77.50
20171;DHT22;10245;51.344;6.620;2023-05-10T12:36:51;16.70;78.10
20171;DHT22;10245;51.344;6.620;2023-05-10T12:39:15;17.50;80.20
20171;DHT22;10245;51.344;6.620;2023-05-10T12:41:38;17.20;74.60
20171;DHT22;10245;51.344;6.620;2023-05-10T12:44:04;17.00;76.70
20171;DHT22;10245;51.344;6.620;2023-05-10T12:46:27;17.00;75.60
20171;DHT22;10245;51.344;6.620;2023-05-10T12:48:51;16.80;75.50
20171;DHT22;10245;51.344;6.620;2023-05-10T12:51:30;16.50;74.50
20171;DHT22;10245;51.344;6.620;2023-05-10T12:53:54;16.80;77.50
20171;DHT22;10245;51.344;6.620;2023-05-10T12:56:17;17.00;76.00
20171;DHT22;10245;51.344;6.620;2023-05-10T12:58:41;17.00;79.00
20171;DHT22;10245;51.344;6.620;2023-05-10T13:01:10;17.10;79.20
20171;DHT22;10245;51.344;6.620;2023-05-10T13:03:33;17.00;74.70
20171;DHT22;10245;51.344;6.620;2023-05-10T13:05:56;17.00;75.90
20171;DHT22;10245;51.344;6.620;2023-05-10T13:08:20;16.60;75.40
20171;DHT22;10245;51.344;6.620;2023-05-10T13:10:44;17.20;77.10
20171;DHT22;10245;51.344;6.620;2023-05-10T13:13:08;17.10;74.70
20171;DHT22;10245;51.344;6.620;2023-05-10T13:15:31;17.10;72.80
20171;DHT22;10245;51.344;6.620;2023-05-10T13:17:54;17.00;74.30
20171;DHT22;10245;51.344;6.620;2023-05-10T13:20:18;17.50;74.60
20171;DHT22;10245;51.344;6.620;2023-05-10T13:22:42;17.70;72.30
20171;DHT22;10245;51.344;6.620;2023-05-10T13:25:06;17.80;73.70
20171;DHT22;10245;51.344;6.620;2023-05-10T13:27:31;17.50;72.30
20171;DHT22;10245;51.344;6.620;2023-05-10T13:29:55;17.50;72.00
20171;DHT22;10245;51.344;6.620;2023-05-10T13:32:18;17.40;72.70
20171;DHT22;10245;51.344;6.620;2023-05-10T13:34:42;17.00;72.50
20171;DHT22;10245;51.344;6.620;2023-05-10T13:37:05;17.10;74.00
20171;DHT22;10245;51.344;6.620;2023-05-10T13:39:28;17.00;75.40
20171;DHT22;10245;51.344;6.620;2023-05-10T13:41:55;17.50;75.20
20171;DHT22;10245;51.344;6.620;2023-05-10T13:44:20;17.00;73.60
20171;DHT22;10245;51.344;6.620;2023-05-10T13:46:43;17.20;76.50
20171;DHT22;10245;51.344;6.620;2023-05-10T13:49:08;17.00;74.40
20171;DHT22;10245;51.344;6.620;2023-05-10T13:51:31;17.10;76.20
20171;DHT22;10245;51.344;6.620;2023-05-10T13:53:54;17.00;76.40
20171;DHT22;10245;51.344;6.620;2023-05-10T13:56:18;17.00;76.40
20171;DHT22;10245;51.344;6.620;2023-05-10T13:58:41;17.20;76.20
20171;DHT22;10245;51.344;6.620;2023-05-10T14:01:05;16.90;77.40
20171;DHT22;10245;51.344;6.620;2023-05-10T14:03:29;17.10;77.70
20171;DHT22;10245;51.344;6.620;2023-05-10T14:05:53;17.00;77.10
20171;DHT22;10245;51.344;6.620;2023-05-10T14:08:16;17.20;78.80
20171;DHT22;10245;51.344;6.620;2023-05-10T14:10:39;17.20;78.30
20171;DHT22;10245;51.344;6.620;2023-05-10T14:13:03;17.00;77.40
20171;DHT22;10245;51.344;6.620;2023-05-10T14:15:26;16.90;77.00
20171;DHT22;10245;51.344;6.620;2023-05-10T14:17:51;17.00;76.90
20171;DHT22;10245;51.344;6.620;2023-05-10T14:20:14;17.00;76.60
20171;DHT22;10245;51.344;6.620;2023-05-10T14:22:38;17.20;76.00
20171;DHT22;10245;51.344;6.620;2023-05-10T14:25:02;17.20;76.30
20171;DHT22;10245;51.344;6.620;2023-05-10T14:27:26;17.50;78.20
20171;DHT22;10245;51.344;6.620;2023-05-10T14:29:49;17.50;76.40
20171;DHT22;10245;51.344;6.620;2023-05-10T14:32:12;17.30;75.00
20171;DHT22;10245;51.344;6.620;2023-05-10T14:34:37;17.50;73.80
20171;DHT22;10245;51.344;6.620;2023-05-10T14:37:00;17.20;75.00
20171;DHT22;10245;51.344;6.620;2023-05-10T14:39:24;17.30;75.70
20171;DHT22;10245;51.344;6.620;2023-05-10T14:41:47;17.50;76.00
20171;DHT22;10245;51.344;6.620;2023-05-10T14:44:10;17.40;74.40
20171;DHT22;10245;51.344;6.620;2023-05-10T14:46:34;17.20;74.50
20171;DHT22;10245;51.344;6.620;2023-05-10T14:48:57;17.10;76.30
20171;DHT22;10245;51.344;6.620;2023-05-10T14:51:22;17.00;75.50
20171;DHT22;10245;51.344;6.620;2023-05-10T14:53:46;17.00;76.30
20171;DHT22;10245;51.344;6.620;2023-05-10T14:56:09;17.00;76.00
20171;DHT22;10245;51.344;6.620;2023-05-10T14:58:33;16.90;77.60
20171;DHT22;10245;51.344;6.620;2023-05-10T15:00:56;16.80;79.60
20171;DHT22;10245;51.344;6.620;2023-05-10T15:03:20;16.70;79.20
20171;DHT22;10245;51.344;6.620;2023-05-10T15:05:44;16.80;80.50
20171;DHT22;10245;51.344;6.620;2023-05-10T15:08:09;16.80;79.40
20171;DHT22;10245;51.344;6.620;2023-05-10T15:10:34;16.90;79.70
20171;DHT22;10245;51.344;6.620;2023-05-10T15:12:59;16.50;81.70
20171;DHT22;10245;51.344;6.620;2023-05-10T15:15:22;16.30;82.00
20171;DHT22;10245;51.344;6.620;2023-05-10T15:17:47;16.50;82.60
20171;DHT22;10245;51.344;6.620;2023-05-10T15:20:11;16.20;82.70